Time;durP1;ratioP1;P1;durP2;ratioP2;P2;SDS_P1;SDS_P2;PMS_P1;PMS_P2;Temp;Humidity;BMP_temperature;BMP_pressure;BME280_temperature;BME280_humidity;BME280_pressure;Samples;Min_cycle;Max_cycle;Signal;HPM_P1;HPM_P2
2023/11/06 09:05:27;;;;;;;2.50;0.60;;;11.40;99.90;;;;;;3671265;23;20238;-72
2023/11/06 09:07:54;;;;;;;2.30;0.60;;;11.50;99.90;;;;;;4885603;29;20215;-73
2023/11/06 09:10:21;;;;;;;4.27;0.80;;;11.50;99.90;;;;;;4883478;29;20230;-73
2023/11/06 09:12:47;;;;;;;4.83;0.90;;;11.40;99.90;;;;;;4880213;29;20330;-72
2023/11/06 09:15:15;;;;;;;2.53;0.77;;;11.50;99.90;;;;;;4869702;29;20264;-73
2023/11/06 09:17:42;;;;;;;1.47;0.60;;;11.50;99.90;;;;;;4860549;29;20272;-74
2023/11/06 09:20:10;;;;;;;2.97;0.73;;;11.60;99.90;;;;;;4860551;29;20280;-72
2023/11/06 09:22:38;;;;;;;5.43;1.20;;;11.40;99.90;;;;;;4863868;29;20269;-72
2023/11/06 09:25:06;;;;;;;1.60;0.40;;;11.50;99.90;;;;;;4860455;29;20216;-73
2023/11/06 09:27:34;;;;;;;2.27;0.60;;;11.60;99.90;;;;;;4859267;29;20207;-71
2023/11/06 09:30:01;;;;;;;5.57;0.93;;;11.60;99.90;;;;;;4876692;29;20210;-71
2023/11/06 09:32:28;;;;;;;3.57;1.10;;;11.60;99.90;;;;;;4871517;29;20227;-71
2023/11/06 09:34:55;;;;;;;4.90;0.60;;;11.60;99.90;;;;;;4858468;29;20339;-70
2023/11/06 09:37:22;;;;;;;1.50;0.73;;;11.70;99.90;;;;;;4858450;29;20630;-70
2023/11/06 09:39:51;;;;;;;6.53;0.80;;;11.80;99.90;;;;;;4858624;29;20216;-69
2023/11/06 09:42:18;;;;;;;3.10;0.90;;;11.70;99.90;;;;;;4858124;29;20231;-70
2023/11/06 09:44:46;;;;;;;3.40;0.60;;;11.60;99.90;;;;;;4858039;29;20219;-72
2023/11/06 09:47:13;;;;;;;1.50;0.30;;;11.60;99.90;;;;;;4858999;29;20208;-71
2023/11/06 09:49:44;;;;;;;2.57;0.57;;;11.70;99.90;;;;;;4858893;29;20220;-71
2023/11/06 09:52:12;;;;;;;2.13;0.60;;;11.80;99.90;;;;;;4858600;29;20238;-71
2023/11/06 09:54:41;;;;;;;4.87;0.77;;;11.90;99.90;;;;;;4858947;29;20303;-71
2023/11/06 09:57:11;;;;;;;2.73;0.50;;;11.90;99.90;;;;;;4857647;29;20216;-72
2023/11/06 09:59:38;;;;;;;2.90;0.67;;;12.00;99.90;;;;;;4867639;29;20207;-72
2023/11/06 10:02:06;;;;;;;2.00;1.23;;;11.90;99.90;;;;;;4873075;29;20274;-72
2023/11/06 10:04:33;;;;;;;2.80;0.63;;;11.80;99.90;;;;;;4860825;29;20299;-71
2023/11/06 10:07:00;;;;;;;3.07;1.07;;;11.80;99.90;;;;;;4860368;29;20251;-73
2023/11/06 10:09:27;;;;;;;3.20;0.73;;;12.10;99.90;;;;;;4862243;29;20212;-71
2023/11/06 10:11:57;;;;;;;4.63;0.97;;;12.30;99.90;;;;;;4861714;29;20628;-72
2023/11/06 10:14:38;;;;;;;5.30;0.87;;;12.50;99.90;;;;;;4865624;29;20263;-71
2023/11/06 10:17:05;;;;;;;5.97;1.03;;;12.60;99.90;;;;;;4862996;29;20224;-71
2023/11/06 10:19:32;;;;;;;1.90;0.53;;;12.60;99.90;;;;;;4879855;29;20662;-72
2023/11/06 10:22:12;;;;;;;4.23;0.70;;;12.40;99.90;;;;;;4899803;29;20301;-71
2023/11/06 10:24:49;;;;;;;2.30;0.90;;;12.50;99.90;;;;;;4862138;29;20216;-72
2023/11/06 10:27:23;;;;;;;3.03;0.60;;;12.50;99.90;;;;;;4863697;29;20223;-73
2023/11/06 10:30:00;;;;;;;4.47;0.73;;;12.40;99.90;;;;;;4872200;29;20220;-76
2023/11/06 10:32:28;;;;;;;2.03;0.70;;;12.30;99.90;;;;;;4869268;29;20239;-72
2023/11/06 10:35:00;;;;;;;2.23;0.50;;;12.30;99.90;;;;;;4867881;29;20228;-73
2023/11/06 10:37:28;;;;;;;5.07;0.60;;;12.30;99.90;;;;;;4868172;29;20748;-73
2023/11/06 10:39:57;;;;;;;2.43;0.70;;;12.20;99.90;;;;;;4869536;29;20211;-73
2023/11/06 10:42:24;;;;;;;4.23;0.60;;;12.30;99.90;;;;;;4878567;29;20235;-81
2023/11/06 10:44:56;;;;;;;1.97;0.63;;;12.30;99.90;;;;;;4861661;29;20222;-74
2023/11/06 10:47:28;;;;;;;1.80;0.53;;;12.50;99.90;;;;;;4861356;29;20207;-73
2023/11/06 10:50:04;;;;;;;1.97;0.50;;;12.50;99.90;;;;;;4861355;29;20302;-78
2023/11/06 10:52:33;;;;;;;2.70;0.97;;;12.40;99.90;;;;;;4862886;29;20648;-73
2023/11/06 10:55:02;;;;;;;2.00;0.57;;;12.30;99.90;;;;;;4876316;29;20238;-75
2023/11/06 10:57:33;;;;;;;1.57;0.50;;;12.20;99.90;;;;;;4879016;29;20218;-72
2023/11/06 11:00:01;;;;;;;5.17;1.00;;;12.30;99.90;;;;;;4868464;29;20204;-74
2023/11/06 11:02:44;;;;;;;2.33;0.47;;;12.30;99.90;;;;;;4861116;29;20239;-73
2023/11/06 11:05:12;;;;;;;2.63;0.80;;;12.40;99.90;;;;;;4861101;29;20224;-79
2023/11/06 11:07:41;;;;;;;3.67;0.87;;;12.40;99.90;;;;;;4860750;29;20204;-71
2023/11/06 11:10:10;;;;;;;4.73;0.90;;;12.50;99.90;;;;;;4861343;29;20222;-74
2023/11/06 11:12:38;;;;;;;2.57;0.80;;;12.60;99.90;;;;;;4861888;29;20300;-73
2023/11/06 11:15:06;;;;;;;2.43;0.80;;;12.60;99.90;;;;;;4862116;29;20216;-72
2023/11/06 11:17:33;;;;;;;4.00;0.70;;;12.60;99.90;;;;;;4861391;29;20212;-76
2023/11/06 11:20:07;;;;;;;1.50;0.57;;;12.60;99.90;;;;;;4862429;29;20218;-71
2023/11/06 11:22:34;;;;;;;4.10;0.50;;;12.70;99.90;;;;;;4861578;29;20240;-71
2023/11/06 11:25:02;;;;;;;1.53;0.40;;;12.60;99.90;;;;;;4862400;29;20208;-73
2023/11/06 11:27:30;;;;;;;1.67;0.47;;;12.50;99.90;;;;;;4861382;29;20215;-70
2023/11/06 11:30:04;;;;;;;3.23;0.50;;;12.40;99.90;;;;;;4862088;29;20235;-69
2023/11/06 11:32:47;;;;;;;2.70;0.73;;;12.40;99.90;;;;;;4861904;29;20236;-70
2023/11/06 11:35:49;;;;;;;2.37;0.50;;;12.60;99.90;;;;;;4861708;29;20239;-70
2023/11/06 11:38:23;;;;;;;5.03;0.57;;;12.60;99.90;;;;;;4861582;29;20216;-70
2023/11/06 11:41:12;;;;;;;0.87;0.60;;;12.60;99.90;;;;;;4861867;29;20617;-70
2023/11/06 11:43:46;;;;;;;1.93;0.60;;;12.90;99.90;;;;;;4861797;29;20284;-70
2023/11/06 11:46:53;;;;;;;1.53;0.57;;;13.10;99.90;;;;;;4861930;29;20281;-69
2023/11/06 11:49:39;;;;;;;3.20;0.40;;;13.20;99.90;;;;;;4861689;29;20583;-71
2023/11/06 11:52:08;;;;;;;5.13;0.70;;;13.30;99.90;;;;;;4860903;29;20232;-71
2023/11/06 11:54:37;;;;;;;4.00;0.67;;;13.50;99.90;;;;;;4861747;29;20318;-74
2023/11/06 11:57:05;;;;;;;3.73;0.50;;;13.70;99.90;;;;;;4861559;29;20240;-71
2023/11/06 11:59:39;;;;;;;2.43;1.43;;;13.60;99.90;;;;;;4861391;29;20295;-73
2023/11/06 12:02:09;;;;;;;3.33;0.97;;;13.50;99.90;;;;;;4870705;29;20231;-73
2023/11/06 12:04:36;;;;;;;3.00;0.57;;;13.30;99.90;;;;;;4869863;29;20291;-71
2023/11/06 12:07:04;;;;;;;1.10;0.40;;;13.20;99.90;;;;;;4869402;29;20314;-72
2023/11/06 12:09:47;;;;;;;2.20;0.63;;;13.10;99.90;;;;;;4869153;29;20299;-70
2023/11/06 12:12:22;;;;;;;0.70;0.40;;;13.20;99.90;;;;;;4869449;29;20230;-70
2023/11/06 12:14:49;;;;;;;3.63;0.70;;;13.10;99.90;;;;;;4863814;29;20211;-70
2023/11/06 12:17:28;;;;;;;2.77;0.50;;;13.10;99.90;;;;;;4861495;29;20246;-74
2023/11/06 12:19:55;;;;;;;1.63;0.37;;;13.10;99.90;;;;;;4861173;29;20697;-70
2023/11/06 12:22:23;;;;;;;5.90;0.70;;;13.20;99.90;;;;;;4860856;29;20323;-71
2023/11/06 12:24:52;;;;;;;4.00;0.60;;;13.10;99.90;;;;;;4860878;29;20694;-75
2023/11/06 12:27:20;;;;;;;1.17;0.50;;;13.00;99.90;;;;;;4860968;29;20208;-70
2023/11/06 12:29:48;;;;;;;6.40;1.10;;;13.00;99.90;;;;;;4861276;29;20223;-71
2023/11/06 12:32:22;;;;;;;1.87;0.57;;;12.80;99.90;;;;;;4861153;29;20239;-72
2023/11/06 12:35:03;;;;;;;4.37;0.80;;;12.90;99.90;;;;;;4860817;29;20298;-70
2023/11/06 12:37:30;;;;;;;1.67;0.77;;;12.80;99.90;;;;;;4860797;29;20247;-70
2023/11/06 12:40:16;;;;;;;2.73;0.70;;;12.70;99.90;;;;;;4861152;29;20219;-70
2023/11/06 12:42:45;;;;;;;3.90;0.57;;;12.60;99.90;;;;;;4860961;29;20670;-71
2023/11/06 12:45:31;;;;;;;5.97;0.50;;;12.40;99.90;;;;;;4861137;29;20268;-71
2023/11/06 12:47:59;;;;;;;2.63;0.70;;;12.20;99.90;;;;;;4861112;29;20215;-71
2023/11/06 12:50:28;;;;;;;3.00;0.83;;;12.10;99.90;;;;;;4861368;29;20215;-71
2023/11/06 12:52:55;;;;;;;2.97;0.60;;;12.10;99.90;;;;;;4860897;29;20330;-72
2023/11/06 12:55:23;;;;;;;3.33;0.60;;;12.00;99.90;;;;;;4860873;29;20246;-71
2023/11/06 12:57:51;;;;;;;4.13;1.63;;;11.90;99.90;;;;;;4860931;29;20393;-71
2023/11/06 13:00:27;;;;;;;5.33;1.30;;;11.80;99.90;;;;;;4860637;29;20216;-71
2023/11/06 13:02:55;;;;;;;3.37;1.00;;;11.70;99.90;;;;;;4860680;29;20288;-71
2023/11/06 13:05:23;;;;;;;1.83;0.53;;;11.50;99.90;;;;;;4860811;29;20280;-72
2023/11/06 13:07:51;;;;;;;2.47;0.70;;;11.50;99.90;;;;;;4860710;29;20565;-70
2023/11/06 13:10:19;;;;;;;2.00;0.50;;;11.40;99.90;;;;;;4860739;29;20244;-71
2023/11/06 13:12:47;;;;;;;2.90;0.40;;;11.30;99.90;;;;;;4860587;29;20239;-70
2023/11/06 13:15:14;;;;;;;3.93;0.73;;;11.20;99.90;;;;;;4860674;29;20239;-71
2023/11/06 13:17:42;;;;;;;5.10;0.80;;;11.20;99.90;;;;;;4860880;29;20243;-72
2023/11/06 13:20:24;;;;;;;3.20;0.70;;;11.10;99.90;;;;;;4860790;29;20211;-71
2023/11/06 13:22:53;;;;;;;3.43;0.80;;;11.10;99.90;;;;;;4860435;29;20375;-74
2023/11/06 13:25:21;;;;;;;1.67;0.50;;;11.10;99.90;;;;;;4860600;29;20222;-73
2023/11/06 13:27:49;;;;;;;1.73;0.50;;;11.20;99.90;;;;;;4860506;29;20306;-72
2023/11/06 13:30:18;;;;;;;4.80;0.63;;;11.20;99.90;;;;;;4860840;29;20307;-70
2023/11/06 13:32:45;;;;;;;2.70;0.70;;;11.20;99.90;;;;;;4860086;29;20228;-71
2023/11/06 13:35:13;;;;;;;6.30;0.63;;;11.20;99.90;;;;;;4860183;29;20208;-70
2023/11/06 13:37:40;;;;;;;5.23;0.63;;;11.40;99.90;;;;;;4860213;29;20266;-72
2023/11/06 13:40:14;;;;;;;2.33;0.70;;;11.50;99.90;;;;;;4860032;29;20287;-72
2023/11/06 13:42:42;;;;;;;2.27;0.70;;;11.50;99.90;;;;;;4863704;29;20286;-70
2023/11/06 13:45:11;;;;;;;4.10;0.80;;;11.50;99.90;;;;;;4882307;29;20214;-73
2023/11/06 13:47:38;;;;;;;0.93;0.47;;;11.60;99.90;;;;;;4872120;29;20214;-71
2023/11/06 13:50:17;;;;;;;4.30;0.70;;;11.50;99.90;;;;;;4878392;29;20297;-72
2023/11/06 13:52:45;;;;;;;3.50;0.60;;;11.40;99.90;;;;;;4875327;29;20358;-71
2023/11/06 13:55:15;;;;;;;3.43;0.80;;;11.50;99.90;;;;;;4863786;29;20222;-75
2023/11/06 13:57:44;;;;;;;1.93;0.80;;;11.60;99.90;;;;;;4863576;29;20232;-73
2023/11/06 14:00:28;;;;;;;1.43;0.60;;;11.50;99.90;;;;;;4863729;29;20212;-71
2023/11/06 14:02:54;;;;;;;4.23;0.70;;;11.40;99.90;;;;;;4862917;29;20783;-74
2023/11/06 14:05:22;;;;;;;2.00;0.50;;;11.40;99.90;;;;;;4863670;29;20314;-72
2023/11/06 14:07:50;;;;;;;6.13;1.47;;;11.40;99.90;;;;;;4865082;29;20211;-71
2023/11/06 14:10:28;;;;;;;1.70;0.37;;;11.40;99.90;;;;;;4870887;29;20200;-72
2023/11/06 14:12:55;;;;;;;3.47;0.60;;;11.40;99.90;;;;;;4871350;29;21368;-71
2023/11/06 14:15:24;;;;;;;5.53;1.50;;;11.40;99.90;;;;;;4871716;29;20204;-72
2023/11/06 14:17:53;;;;;;;2.53;0.70;;;11.50;99.90;;;;;;4869313;29;20637;-72
2023/11/06 14:20:20;;;;;;;2.00;0.47;;;11.50;99.90;;;;;;4863407;29;20679;-72
2023/11/06 14:22:47;;;;;;;5.60;0.80;;;11.50;99.90;;;;;;4863003;29;20319;-72
2023/11/06 14:25:14;;;;;;;1.30;0.40;;;11.50;99.90;;;;;;4863320;29;20212;-72
2023/11/06 14:27:42;;;;;;;1.63;0.67;;;11.50;99.90;;;;;;4863092;29;20671;-71
2023/11/06 14:30:09;;;;;;;1.83;0.50;;;11.60;99.90;;;;;;4863124;29;20307;-71
2023/11/06 14:32:37;;;;;;;1.80;0.67;;;11.60;99.90;;;;;;4862851;29;20232;-71
2023/11/06 14:35:06;;;;;;;3.17;0.60;;;11.60;99.90;;;;;;4863285;29;20226;-78
2023/11/06 14:37:37;;;;;;;1.63;0.63;;;11.70;99.90;;;;;;4863042;29;20327;-71
2023/11/06 14:40:11;;;;;;;1.97;0.50;;;11.70;99.90;;;;;;4863107;29;20212;-71
2023/11/06 14:42:39;;;;;;;3.03;0.53;;;11.60;99.90;;;;;;4862767;29;20242;-71
2023/11/06 14:45:11;;;;;;;6.27;1.43;;;11.40;99.90;;;;;;4863180;29;20231;-71
2023/11/06 14:47:40;;;;;;;3.90;0.63;;;11.40;99.90;;;;;;4863062;29;20211;-71
2023/11/06 14:50:08;;;;;;;2.33;0.70;;;11.40;99.90;;;;;;4862930;29;20215;-71
2023/11/06 14:52:38;;;;;;;2.47;0.40;;;11.30;99.90;;;;;;4861609;29;20584;-75
2023/11/06 14:55:09;;;;;;;1.93;0.80;;;11.20;99.90;;;;;;4870644;29;20215;-70
2023/11/06 14:57:37;;;;;;;1.87;0.80;;;11.00;99.90;;;;;;4870504;29;20254;-71
2023/11/06 15:00:09;;;;;;;2.47;0.70;;;11.00;99.90;;;;;;4872100;29;20211;-70
2023/11/06 15:02:36;;;;;;;3.57;0.80;;;10.90;99.90;;;;;;4872125;29;20400;-71
2023/11/06 15:05:04;;;;;;;1.77;0.70;;;10.80;99.90;;;;;;4874886;29;20222;-74
2023/11/06 15:07:33;;;;;;;2.60;0.60;;;10.80;99.90;;;;;;4877571;29;20297;-71
2023/11/06 15:10:00;;;;;;;1.27;0.40;;;10.80;99.90;;;;;;4862278;29;20664;-72
2023/11/06 15:12:27;;;;;;;2.40;0.50;;;10.80;99.90;;;;;;4861930;29;20323;-72
2023/11/06 15:14:55;;;;;;;3.37;0.50;;;10.80;99.90;;;;;;4857630;29;20220;-73
2023/11/06 15:17:27;;;;;;;2.43;0.40;;;10.80;99.90;;;;;;4869672;29;20314;-74
2023/11/06 15:19:56;;;;;;;2.70;0.60;;;10.80;99.90;;;;;;4869342;29;20244;-72
2023/11/06 15:22:26;;;;;;;3.43;0.93;;;10.80;99.90;;;;;;4865178;29;20330;-74
2023/11/06 15:24:52;;;;;;;0.87;0.43;;;10.80;99.90;;;;;;4861810;29;20212;-72
2023/11/06 15:27:20;;;;;;;1.90;0.73;;;10.90;99.90;;;;;;4877122;29;20208;-71
2023/11/06 15:29:48;;;;;;;1.10;0.50;;;10.90;99.90;;;;;;4872906;29;20247;-72
2023/11/06 15:32:15;;;;;;;1.70;0.50;;;10.90;99.90;;;;;;4878585;29;20322;-75
2023/11/06 15:34:42;;;;;;;2.90;0.50;;;10.90;99.90;;;;;;4863272;29;20303;-71
2023/11/06 15:37:09;;;;;;;2.90;0.77;;;10.80;99.90;;;;;;4867844;29;20274;-71
2023/11/06 15:39:37;;;;;;;1.10;0.60;;;10.80;99.90;;;;;;4879052;29;20284;-72
2023/11/06 15:42:05;;;;;;;1.63;0.50;;;10.70;99.90;;;;;;4869831;29;20243;-76
2023/11/06 15:44:32;;;;;;;1.30;0.80;;;10.70;99.90;;;;;;4859924;29;20738;-73
2023/11/06 15:46:59;;;;;;;1.20;0.60;;;10.70;99.90;;;;;;4860147;29;20212;-72
2023/11/06 15:49:29;;;;;;;1.87;0.70;;;10.60;99.90;;;;;;4859754;29;20222;-72
2023/11/06 15:52:00;;;;;;;3.73;1.40;;;10.60;99.90;;;;;;4858875;29;20212;-71
2023/11/06 15:54:27;;;;;;;2.63;0.70;;;10.50;99.90;;;;;;4862650;29;20298;-72
2023/11/06 15:56:56;;;;;;;2.20;1.00;;;10.50;99.90;;;;;;4870079;29;20232;-74
2023/11/06 15:59:23;;;;;;;3.17;0.50;;;10.40;99.90;;;;;;4858717;29;20223;-73
2023/11/06 16:01:56;;;;;;;1.37;0.50;;;10.40;99.90;;;;;;4859526;29;20223;-71
2023/11/06 16:04:23;;;;;;;2.43;0.50;;;10.30;99.90;;;;;;4859921;29;20208;-71
2023/11/06 16:06:50;;;;;;;1.10;0.50;;;10.30;99.90;;;;;;4859175;29;20212;-72
2023/11/06 16:09:17;;;;;;;1.70;0.40;;;10.20;99.90;;;;;;4859839;29;20264;-72
2023/11/06 16:11:44;;;;;;;2.23;0.60;;;10.20;99.90;;;;;;4859609;29;20281;-72
2023/11/06 16:14:13;;;;;;;1.90;0.60;;;10.10;99.90;;;;;;4858738;29;20299;-71
2023/11/06 16:16:40;;;;;;;2.10;0.90;;;10.00;99.90;;;;;;4859724;29;20272;-75
2023/11/06 16:19:08;;;;;;;4.83;1.30;;;10.00;99.90;;;;;;4859701;29;20247;-73
2023/11/06 16:21:36;;;;;;;1.63;0.70;;;10.00;99.90;;;;;;4867129;29;20299;-71
2023/11/06 16:24:06;;;;;;;1.03;0.53;;;10.00;99.90;;;;;;4857193;29;20447;-73
2023/11/06 16:26:33;;;;;;;3.10;1.20;;;10.00;99.90;;;;;;4858812;29;20212;-73
2023/11/06 16:29:05;;;;;;;4.77;1.73;;;9.90;99.90;;;;;;4873477;29;20247;-77
2023/11/06 16:31:40;;;;;;;1.93;1.20;;;9.90;99.90;;;;;;4872988;29;20240;-71
2023/11/06 16:34:07;;;;;;;2.63;1.50;;;9.80;99.90;;;;;;4870086;29;20655;-74
2023/11/06 16:36:38;;;;;;;2.03;0.93;;;9.80;99.90;;;;;;4860077;29;20544;-72
2023/11/06 16:39:07;;;;;;;2.77;1.07;;;9.80;99.90;;;;;;4877714;29;20215;-70
2023/11/06 16:41:35;;;;;;;3.07;0.67;;;9.80;99.90;;;;;;4877448;29;20207;-71
2023/11/06 16:44:02;;;;;;;1.97;0.70;;;9.70;99.90;;;;;;4859044;29;20228;-71
2023/11/06 16:46:29;;;;;;;1.67;0.87;;;9.70;99.90;;;;;;4858866;29;20680;-70
2023/11/06 16:48:57;;;;;;;1.67;0.50;;;9.70;99.90;;;;;;4858799;29;20264;-75
2023/11/06 16:51:24;;;;;;;1.40;0.60;;;9.70;99.90;;;;;;4858284;29;20204;-71
2023/11/06 16:53:51;;;;;;;2.27;0.90;;;9.60;99.90;;;;;;4858637;29;20232;-71
2023/11/06 16:56:18;;;;;;;1.90;0.67;;;9.50;99.90;;;;;;4862101;29;20274;-76
2023/11/06 16:58:46;;;;;;;3.90;1.00;;;9.60;99.90;;;;;;4860526;29;20239;-75
2023/11/06 17:01:16;;;;;;;1.17;0.90;;;9.60;99.90;;;;;;4857935;29;20319;-70
2023/11/06 17:03:43;;;;;;;1.13;0.80;;;9.60;99.90;;;;;;4858914;29;20228;-70
2023/11/06 17:06:13;;;;;;;1.90;1.57;;;9.60;99.90;;;;;;4858891;29;20314;-70
2023/11/06 17:08:40;;;;;;;3.63;1.03;;;9.60;99.90;;;;;;4858554;29;20222;-69
2023/11/06 17:11:09;;;;;;;3.23;1.50;;;9.50;99.90;;;;;;4858773;29;20212;-74
2023/11/06 17:13:36;;;;;;;3.97;1.47;;;9.40;99.90;;;;;;4858830;29;20324;-71
2023/11/06 17:16:05;;;;;;;9.20;1.70;;;9.40;99.90;;;;;;4857810;29;20220;-71
2023/11/06 17:18:33;;;;;;;3.90;1.83;;;9.40;99.90;;;;;;4858921;29;20243;-70
2023/11/06 17:21:04;;;;;;;8.53;2.50;;;9.50;99.90;;;;;;4858086;29;20227;-73
2023/11/06 17:23:32;;;;;;;6.33;1.90;;;9.50;99.90;;;;;;4857942;29;20334;-74
2023/11/06 17:25:59;;;;;;;8.30;2.63;;;9.40;99.90;;;;;;4860495;29;20219;-72
2023/11/06 17:28:26;;;;;;;6.23;2.37;;;9.50;99.90;;;;;;4859264;29;20302;-75
2023/11/06 17:30:53;;;;;;;6.70;2.47;;;9.40;99.90;;;;;;4858091;29;20272;-71
2023/11/06 17:33:20;;;;;;;3.97;1.80;;;9.40;99.90;;;;;;4858267;29;20239;-73
2023/11/06 17:35:48;;;;;;;6.70;2.40;;;9.40;99.90;;;;;;4858808;29;20218;-73
2023/11/06 17:38:15;;;;;;;7.20;1.80;;;9.50;99.90;;;;;;4857904;29;20239;-71
2023/11/06 17:40:43;;;;;;;4.23;1.80;;;9.40;99.90;;;;;;4858290;29;20295;-73
2023/11/06 17:43:10;;;;;;;5.17;1.80;;;9.40;99.90;;;;;;4858446;29;20239;-72
2023/11/06 17:45:38;;;;;;;6.30;2.57;;;9.40;99.90;;;;;;4858244;29;20226;-74
2023/11/06 17:48:07;;;;;;;4.67;1.50;;;9.30;99.90;;;;;;4858126;29;20215;-72
2023/11/06 17:50:35;;;;;;;7.20;2.20;;;9.40;99.90;;;;;;4858424;29;20216;-74
2023/11/06 17:53:03;;;;;;;5.80;2.30;;;9.40;99.90;;;;;;4862144;29;20284;-73
2023/11/06 17:55:32;;;;;;;8.90;2.97;;;9.40;99.90;;;;;;4865162;29;20653;-73
2023/11/06 17:58:00;;;;;;;14.33;2.80;;;9.50;99.90;;;;;;4861643;29;20243;-75
2023/11/06 18:00:27;;;;;;;9.73;3.07;;;9.50;99.90;;;;;;4866483;29;20259;-70
2023/11/06 18:02:54;;;;;;;9.17;2.17;;;9.50;99.90;;;;;;4867569;29;20668;-70
2023/11/06 18:05:22;;;;;;;7.03;1.60;;;9.50;99.90;;;;;;4864806;29;20221;-70
2023/11/06 18:07:49;;;;;;;7.93;1.57;;;9.50;99.90;;;;;;4857642;29;20210;-71
2023/11/06 18:10:16;;;;;;;5.00;1.70;;;9.50;99.90;;;;;;4868340;29;20223;-74
2023/11/06 18:12:44;;;;;;;4.60;1.37;;;9.50;99.90;;;;;;4864543;29;20287;-73
2023/11/06 18:15:14;;;;;;;9.43;2.70;;;9.50;99.90;;;;;;4865169;29;20215;-73
2023/11/06 18:17:42;;;;;;;7.50;2.17;;;9.50;99.90;;;;;;4874994;29;20245;-74
2023/11/06 18:20:10;;;;;;;8.57;3.13;;;9.50;99.90;;;;;;4877198;29;20216;-71
2023/11/06 18:22:38;;;;;;;4.47;1.40;;;9.50;99.90;;;;;;4870181;29;20698;-70
2023/11/06 18:25:06;;;;;;;8.10;1.30;;;9.50;99.90;;;;;;4865384;29;20674;-69
2023/11/06 18:27:35;;;;;;;5.47;1.40;;;9.50;99.90;;;;;;4873026;29;20277;-71
2023/11/06 18:30:03;;;;;;;4.07;1.30;;;9.50;99.90;;;;;;4875687;29;20690;-70
2023/11/06 18:32:33;;;;;;;3.20;1.30;;;9.50;99.90;;;;;;4868063;29;20238;-69
2023/11/06 18:35:00;;;;;;;8.87;1.70;;;9.50;99.90;;;;;;4881334;29;20218;-72
2023/11/06 18:37:28;;;;;;;3.80;1.60;;;9.60;99.90;;;;;;4871644;29;20319;-69
2023/11/06 18:39:55;;;;;;;7.87;2.63;;;9.50;99.90;;;;;;4866690;29;20212;-72
2023/11/06 18:42:22;;;;;;;7.70;2.20;;;9.60;99.90;;;;;;4865751;29;20240;-69
2023/11/06 18:44:49;;;;;;;3.57;1.43;;;9.60;99.90;;;;;;4862247;29;20304;-72
2023/11/06 18:47:16;;;;;;;5.83;1.60;;;9.60;99.90;;;;;;4870793;29;20212;-72
2023/11/06 18:49:44;;;;;;;8.53;1.70;;;9.60;99.90;;;;;;4870126;29;20674;-72
2023/11/06 18:52:12;;;;;;;6.00;1.73;;;9.50;99.90;;;;;;4873453;29;20227;-69
2023/11/06 18:54:39;;;;;;;4.07;1.33;;;9.50;99.90;;;;;;4863884;29;20219;-71
2023/11/06 18:57:07;;;;;;;4.67;1.53;;;9.50;99.90;;;;;;4875800;29;20207;-70
2023/11/06 18:59:37;;;;;;;4.90;1.80;;;9.50;99.90;;;;;;4877790;29;20239;-76
2023/11/06 19:02:05;;;;;;;8.20;2.27;;;9.50;99.90;;;;;;4862574;29;20255;-70
2023/11/06 19:04:32;;;;;;;5.93;1.50;;;9.60;99.90;;;;;;4868007;29;20208;-71
2023/11/06 19:07:01;;;;;;;3.17;1.73;;;9.60;99.90;;;;;;4860522;29;20352;-71
2023/11/06 19:09:32;;;;;;;5.37;2.63;;;9.60;99.90;;;;;;4860828;29;20212;-70
2023/11/06 19:11:59;;;;;;;6.13;1.20;;;9.60;99.90;;;;;;4861079;29;20231;-70
2023/11/06 19:14:27;;;;;;;3.87;1.30;;;9.60;99.90;;;;;;4871155;29;20751;-72
2023/11/06 19:16:54;;;;;;;6.13;1.53;;;9.60;99.90;;;;;;4862515;29;20218;-73
2023/11/06 19:19:22;;;;;;;5.53;1.40;;;9.60;99.90;;;;;;4859928;29;20266;-72
2023/11/06 19:21:49;;;;;;;3.07;1.60;;;9.50;99.90;;;;;;4862036;29;20218;-72
2023/11/06 19:24:20;;;;;;;5.77;1.70;;;9.50;99.90;;;;;;4860297;29;20212;-73
2023/11/06 19:26:49;;;;;;;3.53;1.70;;;9.50;99.90;;;;;;4868926;29;20207;-73
2023/11/06 19:29:17;;;;;;;5.70;1.83;;;9.50;99.90;;;;;;4860156;29;20302;-75
2023/11/06 19:31:44;;;;;;;6.33;1.47;;;9.50;99.90;;;;;;4859892;29;20204;-73
2023/11/06 19:34:12;;;;;;;5.43;1.93;;;9.50;99.90;;;;;;4859880;29;20208;-75
2023/11/06 19:36:39;;;;;;;4.87;2.10;;;9.60;99.90;;;;;;4863626;29;20218;-73
2023/11/06 19:39:06;;;;;;;2.97;1.30;;;9.50;99.90;;;;;;4877980;29;20243;-73
2023/11/06 19:41:35;;;;;;;5.63;2.03;;;9.50;99.90;;;;;;4866123;29;20215;-71
2023/11/06 19:44:02;;;;;;;4.67;1.60;;;9.50;99.90;;;;;;4866931;29;20231;-76
2023/11/06 19:46:29;;;;;;;5.50;2.00;;;9.50;99.90;;;;;;4865488;29;20216;-71
2023/11/06 19:48:56;;;;;;;8.07;1.70;;;9.60;99.90;;;;;;4870385;29;20208;-71
2023/11/06 19:51:24;;;;;;;6.83;1.93;;;9.50;99.90;;;;;;4859194;29;20216;-73
2023/11/06 19:53:51;;;;;;;5.83;2.00;;;9.50;99.90;;;;;;4859299;29;20268;-72
2023/11/06 19:56:18;;;;;;;7.70;2.00;;;9.50;99.90;;;;;;4860833;29;20223;-71
2023/11/06 19:58:47;;;;;;;5.07;1.77;;;9.50;99.90;;;;;;4867750;29;20308;-72
2023/11/06 20:01:14;;;;;;;4.97;1.90;;;9.50;99.90;;;;;;4859350;29;20712;-74
2023/11/06 20:03:41;;;;;;;5.87;1.63;;;9.60;99.90;;;;;;4858741;29;20599;-71
2023/11/06 20:06:10;;;;;;;4.90;1.70;;;9.60;99.90;;;;;;4860664;29;20592;-71
2023/11/06 20:08:37;;;;;;;6.30;1.70;;;9.50;99.90;;;;;;4861086;29;20208;-71
2023/11/06 20:11:04;;;;;;;4.83;1.63;;;9.50;99.90;;;;;;4861179;29;20212;-71
2023/11/06 20:13:31;;;;;;;3.30;1.30;;;9.50;99.90;;;;;;4861114;29;20292;-71
2023/11/06 20:15:59;;;;;;;4.33;1.30;;;9.50;99.90;;;;;;4861964;29;20492;-70
2023/11/06 20:18:27;;;;;;;8.80;1.73;;;9.50;99.90;;;;;;4872768;29;20312;-76
2023/11/06 20:20:54;;;;;;;2.33;0.93;;;9.50;99.90;;;;;;4878887;29;20666;-71
2023/11/06 20:23:21;;;;;;;4.33;1.43;;;9.50;99.90;;;;;;4878875;29;20866;-68
2023/11/06 20:25:48;;;;;;;4.20;1.57;;;9.60;99.90;;;;;;4873463;29;20625;-71
2023/11/06 20:28:15;;;;;;;6.17;1.60;;;9.60;99.90;;;;;;4876440;29;20693;-71
2023/11/06 20:30:42;;;;;;;3.33;1.23;;;9.60;99.90;;;;;;4873095;29;20298;-68
2023/11/06 20:33:11;;;;;;;16.03;2.23;;;9.60;99.90;;;;;;4866753;29;20231;-70
2023/11/06 20:35:40;;;;;;;4.47;1.27;;;9.50;99.90;;;;;;4871788;29;20211;-72
2023/11/06 20:38:07;;;;;;;3.87;1.30;;;9.40;99.90;;;;;;4865466;29;20239;-76
2023/11/06 20:40:34;;;;;;;3.87;1.00;;;9.40;99.90;;;;;;4866733;29;20303;-74
2023/11/06 20:43:01;;;;;;;2.50;0.90;;;9.40;99.90;;;;;;4868860;29;20228;-71
2023/11/06 20:45:28;;;;;;;4.27;1.10;;;9.50;99.90;;;;;;4874194;29;20219;-75
2023/11/06 20:47:55;;;;;;;1.77;0.90;;;9.50;99.90;;;;;;4873853;29;20215;-72
2023/11/06 20:50:25;;;;;;;3.40;1.50;;;9.50;99.90;;;;;;4860104;29;20215;-71
2023/11/06 20:52:52;;;;;;;3.87;0.70;;;9.50;99.90;;;;;;4860087;29;20231;-71
2023/11/06 20:55:19;;;;;;;2.90;0.77;;;9.50;99.90;;;;;;4860773;29;20227;-71
2023/11/06 20:57:46;;;;;;;1.00;0.70;;;9.50;99.90;;;;;;4860922;29;20256;-70
2023/11/06 21:00:14;;;;;;;1.63;0.63;;;9.50;99.90;;;;;;4858982;29;20326;-71
2023/11/06 21:02:41;;;;;;;1.77;0.70;;;9.50;99.90;;;;;;4861884;29;20295;-71
2023/11/06 21:05:09;;;;;;;2.00;0.70;;;9.50;99.90;;;;;;4860965;29;20247;-71
2023/11/06 21:07:37;;;;;;;2.87;0.90;;;9.40;99.90;;;;;;4867861;29;20655;-70
2023/11/06 21:10:05;;;;;;;6.53;0.90;;;9.40;99.90;;;;;;4877835;29;20342;-71
2023/11/06 21:12:32;;;;;;;2.83;0.90;;;9.40;99.90;;;;;;4878175;29;20318;-70
2023/11/06 21:14:59;;;;;;;1.80;0.73;;;9.40;99.90;;;;;;4878568;29;20207;-72
2023/11/06 21:17:26;;;;;;;3.53;1.20;;;9.40;99.90;;;;;;4876216;29;20298;-71
2023/11/06 21:19:54;;;;;;;2.77;1.03;;;9.40;99.90;;;;;;4871761;29;20714;-70
2023/11/06 21:22:23;;;;;;;2.17;1.07;;;9.40;99.90;;;;;;4864016;29;20228;-71
2023/11/06 21:24:51;;;;;;;2.83;1.10;;;9.30;99.90;;;;;;4859748;29;20552;-71
2023/11/06 21:27:18;;;;;;;9.83;1.17;;;9.40;99.90;;;;;;4860047;29;20234;-71
2023/11/06 21:29:45;;;;;;;1.70;0.60;;;9.40;99.90;;;;;;4864868;29;20223;-71
2023/11/06 21:32:12;;;;;;;1.37;0.60;;;9.40;99.90;;;;;;4859506;29;20874;-71
2023/11/06 21:34:39;;;;;;;4.40;0.80;;;9.40;99.90;;;;;;4859532;29;20247;-70
2023/11/06 21:37:07;;;;;;;6.00;0.83;;;9.40;99.90;;;;;;4859216;29;20668;-71
2023/11/06 21:39:35;;;;;;;3.03;0.80;;;9.40;99.90;;;;;;4861547;29;20239;-71
2023/11/06 21:42:05;;;;;;;2.87;1.40;;;9.40;99.90;;;;;;4865276;29;20267;-71
2023/11/06 21:44:32;;;;;;;1.87;0.70;;;9.40;99.90;;;;;;4875000;29;20592;-71
2023/11/06 21:46:59;;;;;;;3.53;0.80;;;9.30;99.90;;;;;;4864687;29;20268;-71
2023/11/06 21:49:25;;;;;;;2.53;0.60;;;9.30;99.90;;;;;;4863556;29;20762;-71
2023/11/06 21:51:52;;;;;;;1.53;0.83;;;9.30;99.90;;;;;;4860822;29;20295;-70
2023/11/06 21:54:19;;;;;;;3.23;0.70;;;9.30;99.90;;;;;;4878018;29;20266;-72
2023/11/06 21:56:46;;;;;;;2.90;0.67;;;9.30;99.90;;;;;;4872227;29;20212;-70
2023/11/06 21:59:15;;;;;;;3.53;0.80;;;9.30;99.90;;;;;;4859679;29;20275;-70
2023/11/06 22:01:45;;;;;;;2.27;0.70;;;9.30;99.90;;;;;;4859674;29;20405;-70
2023/11/06 22:04:12;;;;;;;1.57;0.50;;;9.30;99.90;;;;;;4863380;29;20227;-80